createdAt,value
2023-01-09T00:01:18.269Z,3.13
2023-01-09T00:06:24.023Z,3.12
2023-01-09T00:11:29.680Z,3.12
2023-01-09T00:16:35.711Z,3.13
2023-01-09T00:21:41.676Z,3.10
2023-01-09T00:26:47.599Z,3.11
2023-01-09T00:31:53.307Z,3.12
2023-01-09T00:36:58.947Z,3.11
2023-01-09T00:42:05.577Z,3.11
2023-01-09T00:47:14.459Z,3.13
2023-01-09T00:52:21.237Z,3.14
2023-01-09T00:57:27.173Z,3.17
2023-01-09T01:02:32.947Z,3.23
2023-01-09T01:07:39.000Z,3.23
2023-01-09T01:12:46.326Z,3.23
2023-01-09T01:17:52.373Z,3.25
2023-01-09T01:22:58.208Z,3.23
2023-01-09T01:28:04.097Z,3.17
2023-01-09T01:33:11.285Z,3.15
2023-01-09T01:38:17.283Z,3.16
2023-01-09T01:43:23.405Z,3.19
2023-01-09T01:48:32.222Z,3.22
2023-01-09T01:53:43.266Z,3.22
2023-01-09T01:58:50.329Z,3.21
2023-01-09T02:03:57.707Z,3.21
2023-01-09T02:09:06.229Z,3.20
2023-01-09T02:14:12.581Z,3.20
2023-01-09T02:19:40.235Z,3.25
2023-01-09T02:25:12.682Z,3.28
2023-01-09T02:30:31.458Z,3.27
2023-01-09T02:35:57.260Z,3.27
2023-01-09T02:41:08.761Z,3.30
2023-01-09T02:46:22.317Z,3.33
2023-01-09T02:51:37.100Z,3.33
2023-01-09T02:57:01.036Z,3.35
2023-01-09T03:02:24.056Z,3.37
2023-01-09T03:07:35.889Z,3.39
2023-01-09T03:12:43.634Z,3.42
2023-01-09T03:17:52.640Z,3.44
2023-01-09T03:23:00.241Z,3.44
2023-01-09T03:28:13.171Z,3.46
2023-01-09T03:33:18.989Z,3.49
2023-01-09T03:38:24.682Z,3.48
2023-01-09T03:43:31.107Z,3.46
2023-01-09T03:48:36.859Z,3.46
2023-01-09T03:53:42.639Z,3.50
2023-01-09T03:58:50.220Z,3.50
2023-01-09T04:03:55.934Z,3.46
2023-01-09T04:09:01.726Z,3.41
2023-01-09T04:14:07.391Z,3.36
2023-01-09T04:19:13.413Z,3.37
2023-01-09T04:24:19.304Z,3.39
2023-01-09T04:29:24.934Z,3.36
2023-01-09T04:34:30.662Z,3.35
2023-01-09T04:39:37.355Z,3.36
2023-01-09T04:44:43.126Z,3.37
2023-01-09T04:49:48.862Z,3.36
2023-01-09T04:54:54.743Z,3.35
2023-01-09T05:00:00.757Z,3.38
2023-01-09T05:05:11.143Z,3.38
2023-01-09T05:10:17.343Z,3.37
2023-01-09T05:15:23.353Z,3.40
2023-01-09T05:20:28.999Z,3.45
2023-01-09T05:25:34.884Z,3.47
2023-01-09T05:30:40.684Z,3.46
2023-01-09T05:35:46.756Z,3.48
2023-01-09T05:40:52.568Z,3.55
2023-01-09T05:45:58.417Z,3.59
2023-01-09T05:51:04.741Z,3.59
2023-01-09T05:56:11.774Z,3.58
2023-01-09T06:01:17.845Z,3.59
2023-01-09T06:06:24.252Z,3.65
2023-01-09T06:11:30.338Z,3.70
2023-01-09T06:16:36.174Z,3.69
2023-01-09T06:21:42.093Z,3.70
2023-01-09T06:26:47.958Z,3.75
2023-01-09T06:31:53.708Z,3.78
2023-01-09T06:36:59.554Z,3.78
2023-01-09T06:42:06.283Z,3.73
2023-01-09T06:47:11.993Z,3.69
2023-01-09T06:52:17.998Z,3.67
2023-01-09T06:57:23.831Z,3.65
2023-01-09T07:02:29.900Z,3.61
2023-01-09T07:07:36.107Z,3.64
2023-01-09T07:12:42.101Z,3.68
2023-01-09T07:17:49.111Z,3.72
2023-01-09T07:22:55.162Z,3.80
2023-01-09T07:28:00.892Z,3.94
2023-01-09T07:33:06.601Z,4.05
2023-01-09T07:38:12.507Z,4.11
2023-01-09T07:43:18.941Z,4.17
2023-01-09T07:48:25.331Z,4.29
2023-01-09T07:53:30.999Z,4.40
2023-01-09T07:58:36.838Z,4.50
2023-01-09T08:03:42.678Z,4.61
2023-01-09T08:08:48.492Z,4.67
2023-01-09T08:13:54.334Z,4.72
2023-01-09T08:19:00.115Z,4.83
2023-01-09T08:24:06.565Z,4.96
2023-01-09T08:29:12.590Z,5.10
2023-01-09T08:34:18.290Z,5.18
2023-01-09T08:39:24.311Z,5.25
2023-01-09T08:44:49.272Z,5.40
2023-01-09T08:49:55.039Z,5.43
2023-01-09T08:55:00.701Z,5.52
2023-01-09T09:00:08.346Z,5.69
2023-01-09T09:05:14.252Z,5.79
2023-01-09T09:10:20.885Z,5.76
2023-01-09T09:15:28.392Z,5.72
2023-01-09T09:20:36.470Z,5.69
2023-01-09T09:25:42.680Z,5.63
2023-01-09T09:30:48.605Z,5.66
2023-01-09T09:35:54.440Z,5.74
2023-01-09T09:41:43.705Z,5.78
2023-01-09T09:47:02.487Z,5.77
2023-01-09T09:52:19.848Z,5.80
2023-01-09T09:57:34.809Z,5.79
2023-01-09T10:02:50.489Z,5.80
2023-01-09T10:08:11.572Z,5.85
2023-01-09T10:13:42.859Z,5.83
2023-01-09T10:19:01.594Z,5.80
2023-01-09T10:24:21.085Z,5.75
2023-01-09T10:29:44.474Z,5.72
2023-01-09T10:35:01.681Z,5.72
2023-01-09T10:40:16.456Z,5.64
2023-01-09T10:45:29.593Z,5.61
2023-01-09T10:50:40.017Z,5.58
2023-01-09T10:55:47.813Z,5.57
2023-01-09T11:00:53.651Z,5.55
2023-01-09T11:06:01.003Z,5.53
2023-01-09T11:11:06.801Z,5.54
2023-01-09T11:16:22.736Z,5.50
2023-01-09T11:21:39.286Z,5.53
2023-01-09T11:26:45.452Z,5.55
2023-01-09T11:31:55.904Z,5.54
2023-01-09T11:37:10.985Z,5.52
2023-01-09T11:42:41.644Z,5.54
2023-01-09T11:47:47.880Z,5.51
2023-01-09T11:53:16.156Z,5.45
2023-01-09T11:58:30.942Z,5.41
2023-01-09T12:03:59.013Z,5.44
2023-01-09T12:09:08.755Z,5.45
2023-01-09T12:14:44.222Z,5.43
2023-01-09T12:20:16.739Z,5.45
2023-01-09T12:25:37.737Z,5.48
2023-01-09T12:30:58.059Z,5.51
2023-01-09T12:36:20.613Z,5.57
2023-01-09T12:41:55.046Z,5.62
2023-01-09T12:47:17.938Z,5.61
2023-01-09T12:52:30.989Z,5.62
2023-01-09T12:57:40.996Z,5.66
2023-01-09T13:03:00.403Z,5.67
2023-01-09T13:08:22.635Z,5.67
2023-01-09T13:13:36.661Z,5.73
2023-01-09T13:18:47.649Z,5.80
2023-01-09T13:24:02.348Z,5.80
2023-01-09T13:29:18.475Z,5.82
2023-01-09T13:34:28.375Z,5.84
2023-01-09T13:39:35.904Z,5.84
2023-01-09T13:44:43.882Z,5.87
2023-01-09T13:50:28.310Z,5.91
2023-01-09T13:55:36.260Z,5.91
2023-01-09T14:00:55.859Z,5.91
2023-01-09T14:06:16.412Z,5.93
2023-01-09T14:11:27.661Z,5.92
2023-01-09T14:16:38.193Z,5.92
2023-01-09T14:21:52.788Z,5.95
2023-01-09T14:27:01.630Z,5.95
2023-01-09T14:32:42.805Z,5.94
2023-01-09T14:38:06.630Z,5.93
2023-01-09T14:43:24.151Z,5.95
2023-01-09T14:48:32.231Z,5.98
2023-01-09T14:53:40.284Z,5.99
2023-01-09T14:58:46.419Z,5.99
2023-01-09T15:03:58.815Z,6.01
2023-01-09T15:09:08.167Z,6.05
2023-01-09T15:14:26.201Z,6.06
2023-01-09T15:19:34.272Z,6.09
2023-01-09T15:24:41.464Z,6.13
2023-01-09T15:29:48.323Z,6.14
2023-01-09T15:34:55.793Z,6.18
2023-01-09T15:40:04.386Z,6.24
2023-01-09T15:45:21.834Z,6.26
2023-01-09T15:50:30.784Z,6.27
2023-01-09T15:55:36.787Z,6.28
2023-01-09T16:00:45.611Z,6.32
2023-01-09T16:06:00.686Z,6.32
2023-01-09T16:11:10.986Z,6.32
2023-01-09T16:16:25.665Z,6.35
2023-01-09T16:21:38.696Z,6.37
2023-01-09T16:26:44.413Z,6.35
2023-01-09T16:31:58.018Z,6.36
2023-01-09T16:37:06.288Z,6.36
2023-01-09T16:42:30.950Z,6.36
2023-01-09T16:47:36.759Z,6.38
2023-01-09T16:52:42.576Z,6.39
2023-01-09T16:57:48.681Z,6.37
2023-01-09T17:02:54.434Z,6.37
2023-01-09T17:08:00.268Z,6.39
2023-01-09T17:13:06.796Z,6.39
2023-01-09T17:18:16.616Z,6.38
2023-01-09T17:23:25.803Z,6.41
2023-01-09T17:28:32.035Z,6.42
2023-01-09T17:33:39.669Z,6.39
2023-01-09T17:38:45.872Z,6.38
2023-01-09T17:43:51.867Z,6.43
2023-01-09T17:48:58.779Z,6.43
2023-01-09T17:54:05.362Z,6.41
2023-01-09T17:59:13.876Z,6.41
2023-01-09T18:04:19.587Z,6.43
2023-01-09T18:09:25.298Z,6.45
2023-01-09T18:14:31.047Z,6.41
2023-01-09T18:19:37.010Z,6.39
2023-01-09T18:24:42.824Z,6.43
2023-01-09T18:29:48.686Z,6.49
2023-01-09T18:34:54.543Z,6.49
2023-01-09T18:40:00.479Z,6.49
2023-01-09T18:45:07.761Z,6.52
2023-01-09T18:50:14.057Z,6.51
2023-01-09T18:55:21.769Z,6.50
2023-01-09T19:00:27.526Z,6.46
2023-01-09T19:05:34.653Z,6.50
2023-01-09T19:10:40.545Z,6.50
2023-01-09T19:15:46.487Z,6.46
2023-01-09T19:20:52.835Z,6.44
2023-01-09T19:26:04.473Z,6.46
2023-01-09T19:31:10.589Z,6.46
2023-01-09T19:36:16.644Z,6.44
2023-01-09T19:41:22.683Z,6.47
2023-01-09T19:46:30.330Z,6.55
2023-01-09T19:51:36.542Z,6.60
2023-01-09T19:56:45.218Z,6.57
2023-01-09T20:01:51.011Z,6.59
2023-01-09T20:06:56.756Z,6.62
2023-01-09T20:12:05.321Z,6.65
2023-01-09T20:17:11.082Z,6.66
2023-01-09T20:22:16.697Z,6.69
2023-01-09T20:27:22.309Z,6.75
2023-01-09T20:32:29.944Z,6.77
2023-01-09T20:37:35.712Z,6.72
2023-01-09T20:42:41.849Z,6.68
2023-01-09T20:47:47.948Z,6.64
2023-01-09T20:52:53.906Z,6.60
2023-01-09T20:58:00.165Z,6.56
2023-01-09T21:03:06.149Z,6.50
2023-01-09T21:08:12.048Z,6.48
2023-01-09T21:13:17.691Z,6.42
2023-01-09T21:18:23.398Z,6.37
2023-01-09T21:23:28.947Z,6.35
2023-01-09T21:28:41.617Z,6.35
2023-01-09T21:33:48.399Z,6.31
2023-01-09T21:38:56.828Z,6.31
2023-01-09T21:44:21.708Z,6.31
2023-01-09T21:49:31.429Z,6.28
2023-01-09T21:54:37.509Z,6.23
2023-01-09T21:59:43.488Z,6.20
2023-01-09T22:04:49.534Z,6.17
2023-01-09T22:09:55.305Z,6.12
2023-01-09T22:15:00.981Z,6.09
2023-01-09T22:20:09.236Z,6.08
2023-01-09T22:25:15.025Z,6.05
2023-01-09T22:30:21.285Z,6.01
2023-01-09T22:35:27.249Z,6.00
2023-01-09T22:40:33.306Z,5.99
2023-01-09T22:45:39.073Z,5.99
2023-01-09T22:50:44.992Z,5.97
2023-01-09T22:55:57.995Z,5.96
2023-01-09T23:06:25.376Z,5.92
2023-01-09T23:11:50.389Z,5.90
2023-01-09T23:16:56.746Z,5.90
2023-01-09T23:22:03.786Z,5.89
2023-01-09T23:27:09.594Z,5.87
2023-01-09T23:32:15.738Z,5.89
2023-01-09T23:37:21.583Z,5.91
2023-01-09T23:42:46.487Z,5.87
2023-01-09T23:47:52.286Z,5.84
2023-01-09T23:52:58.199Z,5.82
2023-01-09T23:58:03.924Z,5.83
